Time;durP1;ratioP1;P1;durP2;ratioP2;P2;SDS_P1;SDS_P2;PMS_P1;PMS_P2;Temp;Humidity;BMP_temperature;BMP_pressure;BME280_temperature;BME280_humidity;BME280_pressure;Samples;Min_cycle;Max_cycle;Signal;HPM_P1;HPM_P2
2021/10/10 00:01:43;;;;;;;17.38;8.23;;;;;;;9.69;100.00;101378.72;5006053;28;20026;-75
2021/10/10 00:04:09;;;;;;;15.75;8.73;;;;;;;9.91;100.00;101415.09;4996396;28;20508;-74
2021/10/10 00:06:35;;;;;;;17.23;8.85;;;;;;;9.86;100.00;101407.09;4995070;28;20465;-74
2021/10/10 00:09:01;;;;;;;14.52;8.60;;;;;;;9.63;100.00;101367.16;4994466;28;20022;-73
2021/10/10 00:11:26;;;;;;;16.73;8.75;;;;;;;9.86;100.00;101402.81;4994909;28;20027;-76
2021/10/10 00:13:51;;;;;;;19.38;9.52;;;;;;;9.98;100.00;101401.72;4994512;28;20019;-77
2021/10/10 00:16:17;;;;;;;19.30;9.23;;;;;;;10.07;100.00;101397.06;5002162;28;20026;-74
2021/10/10 00:18:42;;;;;;;19.17;8.77;;;;;;;9.96;100.00;101375.84;4994482;28;20027;-76
2021/10/10 00:21:08;;;;;;;15.23;8.77;;;;;;;10.09;100.00;101399.72;4994431;28;20054;-78
2021/10/10 00:23:33;;;;;;;13.90;8.10;;;;;;;10.01;100.00;101381.25;4994757;28;20026;-76
2021/10/10 00:25:59;;;;;;;18.55;9.05;;;;;;;10.08;100.00;101388.53;4994927;28;20034;-79
2021/10/10 00:28:25;;;;;;;14.48;8.63;;;;;;;10.10;100.00;101381.72;4994269;28;20027;-79
2021/10/10 00:30:50;;;;;;;11.05;7.72;;;;;;;10.23;100.00;101388.47;4996545;28;20050;-77
2021/10/10 00:33:16;;;;;;;18.38;8.60;;;;;;;10.05;100.00;101352.22;5003267;28;20061;-82
2021/10/10 00:35:41;;;;;;;13.10;8.10;;;;;;;10.24;100.00;101379.00;4994257;28;20449;-78
2021/10/10 00:38:07;;;;;;;14.80;7.82;;;;;;;10.26;100.00;101388.59;5008321;28;20125;-77
2021/10/10 00:40:33;;;;;;;13.63;7.75;;;;;;;10.19;100.00;101383.91;4994091;28;20023;-76
2021/10/10 00:42:58;;;;;;;16.45;8.00;;;;;;;10.27;100.00;101394.63;4994604;28;20026;-78
2021/10/10 00:45:23;;;;;;;11.57;7.40;;;;;;;10.32;100.00;101390.63;4993991;28;20026;-80
2021/10/10 00:47:49;;;;;;;19.15;9.48;;;;;;;10.31;100.00;101373.38;4994545;28;20087;-82
2021/10/10 00:50:15;;;;;;;20.83;10.52;;;;;;;10.35;100.00;101373.63;4994119;28;20050;-81
2021/10/10 00:52:43;;;;;;;12.98;7.28;;;;;;;10.47;100.00;101391.47;4994249;28;20108;-83
2021/10/10 00:55:10;;;;;;;15.10;8.18;;;;;;;10.49;100.00;101379.53;4992773;28;20065;-79
2021/10/10 00:57:41;;;;;;;21.13;12.43;;;;;;;10.53;100.00;101378.00;5003654;28;20046;-79
2021/10/10 01:00:08;;;;;;;15.10;8.55;;;;;;;10.61;100.00;101380.97;4996111;28;20029;-74
2021/10/10 01:02:36;;;;;;;13.30;7.78;;;;;;;10.42;100.00;101356.78;4998888;28;20144;-73
2021/10/10 01:05:02;;;;;;;16.42;8.32;;;;;;;10.46;100.00;101368.16;4993958;28;20074;-74
2021/10/10 01:07:28;;;;;;;20.33;9.23;;;;;;;10.47;100.00;101357.91;4993676;28;20023;-80
2021/10/10 01:09:53;;;;;;;14.55;8.23;;;;;;;10.64;100.00;101373.38;4992429;28;20026;-79
2021/10/10 01:12:19;;;;;;;11.18;7.47;;;;;;;10.46;100.00;101319.97;4991194;28;20057;-77
2021/10/10 01:14:45;;;;;;;16.33;8.73;;;;;;;10.58;100.00;101332.63;4991284;28;20030;-78
2021/10/10 01:17:10;;;;;;;15.07;9.02;;;;;;;10.71;100.00;101352.22;4990894;28;20153;-81
2021/10/10 01:19:37;;;;;;;12.80;7.38;;;;;;;10.66;100.00;101335.59;4991358;28;20161;-78
2021/10/10 01:22:03;;;;;;;10.95;6.85;;;;;;;10.74;100.00;101349.81;4990899;28;20038;-77
2021/10/10 01:24:29;;;;;;;14.25;8.52;;;;;;;10.69;100.00;101333.16;4991237;28;20473;-76
2021/10/10 01:26:55;;;;;;;19.02;8.88;;;;;;;10.79;100.00;101343.16;4989309;28;20194;-74
2021/10/10 01:29:21;;;;;;;13.57;8.48;;;;;;;10.93;100.00;101355.84;4991076;28;20129;-75
2021/10/10 01:31:48;;;;;;;9.52;6.00;;;;;;;10.95;100.00;101362.00;4990868;28;20528;-77
2021/10/10 01:34:14;;;;;;;8.40;5.63;;;;;;;10.67;100.00;101324.47;4974515;28;20022;-75
2021/10/10 01:36:41;;;;;;;9.23;6.07;;;;;;;10.79;100.00;101348.34;4990663;28;20552;-76
2021/10/10 01:39:07;;;;;;;9.80;6.10;;;;;;;10.81;100.00;101351.84;4990689;28;20551;-76
2021/10/10 01:41:32;;;;;;;10.35;5.82;;;;;;;10.78;100.00;101359.47;4990948;28;20108;-72
2021/10/10 01:43:58;;;;;;;8.10;5.45;;;;;;;10.57;100.00;101311.91;4992568;28;20049;-73
2021/10/10 01:46:23;;;;;;;8.00;5.75;;;;;;;10.71;100.00;101357.38;4993154;28;20018;-74
2021/10/10 01:48:49;;;;;;;13.27;6.18;;;;;;;10.76;100.00;101361.06;4992882;28;20485;-75
2021/10/10 01:51:14;;;;;;;10.65;5.88;;;;;;;10.79;100.00;101360.34;4993197;28;20154;-76
2021/10/10 01:53:40;;;;;;;9.10;5.63;;;;;;;10.85;100.00;101355.47;4993526;28;20038;-75
2021/10/10 01:56:06;;;;;;;8.98;5.32;;;;;;;10.74;100.00;101348.91;5002668;28;20033;-75
2021/10/10 01:58:32;;;;;;;7.38;4.63;;;;;;;10.82;100.00;101365.69;5001184;28;20042;-71
2021/10/10 02:00:58;;;;;;;8.98;4.57;;;;;;;10.87;100.00;101371.09;5003884;28;20014;-74
2021/10/10 02:03:24;;;;;;;6.22;4.35;;;;;;;10.91;100.00;101373.00;5001426;28;20060;-75
2021/10/10 02:05:50;;;;;;;8.88;4.90;;;;;;;10.93;100.00;101368.78;5005312;28;20488;-72
2021/10/10 02:08:16;;;;;;;13.00;7.63;;;;;;;10.71;100.00;101331.56;5001510;28;20024;-73
2021/10/10 02:10:42;;;;;;;15.25;9.02;;;;;;;10.79;100.00;101378.41;5001924;28;20021;-73
2021/10/10 02:13:07;;;;;;;30.95;14.32;;;;;;;10.55;100.00;101355.69;5002610;28;20408;-74
2021/10/10 02:15:33;;;;;;;24.23;11.90;;;;;;;10.61;100.00;101370.63;5004408;28;20026;-75
2021/10/10 02:17:58;;;;;;;23.10;11.98;;;;;;;10.42;100.00;101358.44;5002713;28;20579;-72
2021/10/10 02:20:24;;;;;;;17.23;10.60;;;;;;;10.27;100.00;101333.59;5000754;28;20023;-76
2021/10/10 02:22:49;;;;;;;21.73;12.43;;;;;;;10.42;100.00;101353.28;5002179;28;20014;-75
2021/10/10 02:25:15;;;;;;;19.13;11.38;;;;;;;10.50;100.00;101355.50;5001567;28;20029;-76
2021/10/10 02:27:40;;;;;;;8.25;5.22;;;;;;;10.46;100.00;101366.44;5002886;28;20441;-77
2021/10/10 02:30:06;;;;;;;13.25;6.68;;;;;;;10.48;100.00;101357.09;5002468;28;20049;-74
2021/10/10 02:32:31;;;;;;;13.85;8.15;;;;;;;10.39;100.00;101322.16;5004456;28;20021;-76
2021/10/10 02:34:58;;;;;;;9.70;5.10;;;;;;;10.55;100.00;101365.16;5008931;28;20042;-74
2021/10/10 02:37:24;;;;;;;10.07;5.43;;;;;;;10.59;100.00;101369.66;5010977;28;20024;-75
2021/10/10 02:39:49;;;;;;;6.53;4.75;;;;;;;10.45;100.00;101345.72;4991196;28;20014;-73
2021/10/10 02:42:15;;;;;;;7.78;4.45;;;;;;;10.28;100.00;101344.81;4999524;28;20049;-76
2021/10/10 02:44:40;;;;;;;9.00;4.90;;;;;;;10.36;100.00;101361.63;5000482;28;20015;-76
2021/10/10 02:47:06;;;;;;;8.65;4.70;;;;;;;10.40;100.00;101357.50;5002367;28;20014;-78
2021/10/10 02:49:31;;;;;;;6.85;4.53;;;;;;;10.36;100.00;101344.44;5001751;28;20072;-74
2021/10/10 02:51:57;;;;;;;7.00;5.03;;;;;;;10.39;100.00;101355.72;5000096;28;20057;-76
2021/10/10 02:54:22;;;;;;;18.27;12.38;;;;;;;10.38;100.00;101343.63;5007971;28;20118;-77
2021/10/10 02:56:48;;;;;;;39.50;23.73;;;;;;;10.31;100.00;101345.84;5006836;28;20058;-74
2021/10/10 02:59:14;;;;;;;9.18;6.32;;;;;;;10.33;100.00;101353.66;5011128;28;20026;-73
2021/10/10 03:01:40;;;;;;;23.48;21.05;;;;;;;10.09;100.00;101335.22;5011323;28;20036;-71
2021/10/10 03:04:05;;;;;;;24.70;19.55;;;;;;;9.94;100.00;101294.03;4990233;28;20034;-73
2021/10/10 03:06:31;;;;;;;10.18;7.50;;;;;;;10.03;100.00;101300.56;4991795;28;20026;-75
2021/10/10 03:08:56;;;;;;;7.43;5.00;;;;;;;10.11;100.00;101293.22;4992095;28;20453;-72
2021/10/10 03:11:21;;;;;;;6.70;5.13;;;;;;;10.32;100.00;101326.97;4992077;28;20022;-73
2021/10/10 03:13:47;;;;;;;5.70;4.20;;;;;;;10.44;100.00;101331.03;4993254;28;20484;-74
2021/10/10 03:16:12;;;;;;;6.90;4.38;;;;;;;10.47;100.00;101341.53;4997032;28;20105;-74
2021/10/10 03:18:38;;;;;;;7.10;4.63;;;;;;;10.40;100.00;101331.69;4996541;28;20014;-79
2021/10/10 03:21:04;;;;;;;6.57;4.60;;;;;;;10.42;100.00;101343.88;5010329;28;20453;-72
2021/10/10 03:23:30;;;;;;;7.15;4.45;;;;;;;10.34;100.00;101332.22;5011311;28;20412;-75
2021/10/10 03:25:55;;;;;;;18.63;8.88;;;;;;;10.22;100.00;101318.69;5013592;28;20060;-75
2021/10/10 03:28:22;;;;;;;9.82;5.15;;;;;;;10.33;100.00;101328.75;5015511;28;20049;-74
2021/10/10 03:30:47;;;;;;;8.13;5.00;;;;;;;10.39;100.00;101341.13;5014967;28;20442;-73
2021/10/10 03:33:13;;;;;;;6.70;4.28;;;;;;;10.33;100.00;101340.75;5015360;28;20030;-77
2021/10/10 03:35:38;;;;;;;10.13;5.35;;;;;;;10.02;100.00;101301.34;5015171;28;20439;-78
2021/10/10 03:38:04;;;;;;;8.10;5.32;;;;;;;10.03;100.00;101291.91;4980215;28;20069;-74
2021/10/10 03:40:29;;;;;;;7.65;5.70;;;;;;;10.45;100.00;101351.75;5015359;28;20026;-74
2021/10/10 03:42:55;;;;;;;8.40;5.50;;;;;;;10.52;100.00;101351.28;5015230;28;20022;-73
2021/10/10 03:45:20;;;;;;;10.27;4.97;;;;;;;10.42;100.00;101325.81;5015259;28;20108;-73
2021/10/10 03:47:46;;;;;;;7.40;4.75;;;;;;;10.44;100.00;101343.94;5015214;28;20036;-73
2021/10/10 03:50:12;;;;;;;9.88;4.97;;;;;;;10.43;100.00;101344.75;5014744;28;20034;-76
2021/10/10 03:52:37;;;;;;;9.82;4.82;;;;;;;10.37;100.00;101324.69;5014796;28;20029;-78
2021/10/10 03:55:28;;;;;;;9.45;4.70;;;;;;;10.38;100.00;101323.88;5014896;28;20113;-75
2021/10/10 03:57:54;;;;;;;8.75;5.05;;;;;;;10.47;100.00;101329.50;5014787;28;20520;-72
2021/10/10 04:00:20;;;;;;;8.05;4.88;;;;;;;10.46;100.00;101324.28;5015027;28;20473;-72
2021/10/10 04:02:45;;;;;;;11.25;5.57;;;;;;;10.20;100.00;101304.03;5014754;28;20033;-73
2021/10/10 04:08:15;;;;;;;7.65;5.22;;;;;;;10.40;100.00;101335.16;4915728;29;20167;-73
2021/10/10 04:10:41;;;;;;;7.70;4.88;;;;;;;10.39;100.00;101327.34;4915279;29;20472;-74
2021/10/10 04:13:07;;;;;;;11.00;6.05;;;;;;;10.28;100.00;101314.75;4915580;29;20433;-77
2021/10/10 04:15:34;;;;;;;17.23;6.80;;;;;;;10.40;100.00;101334.28;4915690;29;20436;-73
2021/10/10 04:18:00;;;;;;;16.90;6.00;;;;;;;10.14;100.00;101269.25;4915679;29;20063;-76
2021/10/10 04:20:25;;;;;;;13.88;6.88;;;;;;;10.50;100.00;101327.09;4915473;29;20036;-75
2021/10/10 04:22:51;;;;;;;16.65;7.57;;;;;;;10.39;100.00;101320.47;4915536;29;20024;-73
2021/10/10 04:25:16;;;;;;;25.17;8.38;;;;;;;10.54;100.00;101340.13;4915484;29;20036;-80
2021/10/10 04:27:42;;;;;;;24.83;9.38;;;;;;;10.48;100.00;101327.78;4915476;29;20028;-73
2021/10/10 04:30:13;;;;;;;28.10;9.63;;;;;;;10.57;100.00;101337.72;4915280;29;20072;-75
2021/10/10 04:32:40;;;;;;;27.90;8.57;;;;;;;10.65;100.00;101339.91;4915357;29;20032;-75
2021/10/10 04:35:06;;;;;;;33.53;8.90;;;;;;;10.68;100.00;101331.41;4915458;29;20414;-74
2021/10/10 04:37:31;;;;;;;38.45;7.75;;;;;;;10.76;100.00;101345.56;4914689;29;20039;-78
2021/10/10 04:39:57;;;;;;;31.92;7.55;;;;;;;10.81;100.00;101343.22;4985322;28;20129;-78
2021/10/10 04:42:22;;;;;;;38.80;9.65;;;;;;;10.67;100.00;101337.38;4994251;28;20026;-77
2021/10/10 04:44:48;;;;;;;40.47;10.20;;;;;;;10.59;100.00;101328.34;4994607;28;20022;-75
2021/10/10 04:47:13;;;;;;;43.33;11.10;;;;;;;10.48;100.00;101313.22;5014122;28;20029;-74
2021/10/10 04:49:39;;;;;;;35.35;9.10;;;;;;;10.71;100.00;101347.03;5013976;28;20156;-76
2021/10/10 04:52:04;;;;;;;30.85;10.07;;;;;;;10.68;100.00;101355.53;5014025;28;20045;-74
2021/10/10 04:54:31;;;;;;;34.42;10.13;;;;;;;10.67;100.00;101356.34;5014093;28;20176;-74
2021/10/10 04:56:57;;;;;;;34.67;10.25;;;;;;;10.67;100.00;101346.00;5013356;28;20102;-76
2021/10/10 04:59:22;;;;;;;36.63;9.10;;;;;;;10.69;100.00;101348.66;5013561;28;20472;-78
2021/10/10 05:01:47;;;;;;;33.55;9.75;;;;;;;10.74;100.00;101357.56;5013849;28;20480;-74
2021/10/10 05:04:13;;;;;;;30.83;9.40;;;;;;;10.67;100.00;101339.97;5013665;28;20025;-77
2021/10/10 05:06:38;;;;;;;29.10;9.82;;;;;;;10.60;100.00;101350.78;5013707;28;20040;-77
2021/10/10 05:09:04;;;;;;;29.52;9.82;;;;;;;10.56;100.00;101335.97;5013538;28;20068;-80
2021/10/10 05:11:29;;;;;;;43.40;9.93;;;;;;;10.29;100.00;101316.53;5013498;28;20471;-81
2021/10/10 05:13:55;;;;;;;39.65;10.85;;;;;;;10.39;100.00;101341.13;4994765;28;20481;-78
2021/10/10 05:16:20;;;;;;;32.90;9.35;;;;;;;10.45;100.00;101354.34;5013482;28;20026;-79
2021/10/10 05:18:46;;;;;;;36.20;9.75;;;;;;;10.11;100.00;101308.69;5013874;28;20426;-80
2021/10/10 05:21:11;;;;;;;31.00;10.63;;;;;;;10.20;100.00;101327.25;5013338;28;20481;-76
2021/10/10 05:23:36;;;;;;;31.10;11.57;;;;;;;10.39;100.00;101354.03;5013201;28;20453;-77
2021/10/10 05:26:02;;;;;;;30.10;10.07;;;;;;;10.32;100.00;101368.28;5013052;28;20515;-77
2021/10/10 05:28:27;;;;;;;36.13;10.55;;;;;;;10.32;100.00;101367.41;5013123;28;20029;-80
2021/10/10 05:30:53;;;;;;;23.88;10.13;;;;;;;10.39;100.00;101371.22;5013204;28;20030;-82
2021/10/10 05:33:19;;;;;;;23.05;8.73;;;;;;;10.18;100.00;101362.41;5012680;28;20057;-79
2021/10/10 05:35:46;;;;;;;31.27;10.00;;;;;;;10.22;100.00;101367.72;5013138;28;20022;-81
2021/10/10 05:38:11;;;;;;;19.55;8.18;;;;;;;10.23;100.00;101372.06;5013114;28;20029;-82
2021/10/10 05:40:37;;;;;;;22.08;8.88;;;;;;;10.13;100.00;101352.63;5013041;28;20427;-78
2021/10/10 05:43:02;;;;;;;23.10;8.30;;;;;;;10.18;100.00;101382.13;5012767;28;20036;-80
2021/10/10 05:45:28;;;;;;;19.83;7.55;;;;;;;10.07;100.00;101360.94;4961635;28;20033;-77
2021/10/10 05:47:53;;;;;;;28.33;9.68;;;;;;;10.01;100.00;101347.72;5011692;28;20064;-77
2021/10/10 05:50:19;;;;;;;29.05;10.20;;;;;;;10.30;100.00;101390.53;4994012;28;20038;-79
2021/10/10 05:52:44;;;;;;;29.38;10.90;;;;;;;10.28;100.00;101387.00;4994672;28;20029;-75
2021/10/10 05:55:12;;;;;;;29.85;10.10;;;;;;;10.17;100.00;101373.53;5012366;28;20121;-81
2021/10/10 05:57:47;;;;;;;23.25;9.98;;;;;;;10.28;100.00;101396.41;5012210;28;20099;-76
2021/10/10 06:00:17;;;;;;;31.83;10.13;;;;;;;10.20;100.00;101390.84;5012712;28;20035;-77
2021/10/10 06:02:44;;;;;;;33.33;11.02;;;;;;;10.25;100.00;101396.28;5012435;28;20544;-78
2021/10/10 06:05:10;;;;;;;32.17;10.50;;;;;;;10.31;100.00;101399.19;5012686;28;20109;-78
2021/10/10 06:07:38;;;;;;;33.72;9.15;;;;;;;10.27;100.00;101395.53;5012593;28;20030;-79
2021/10/10 06:10:05;;;;;;;25.58;8.05;;;;;;;10.36;100.00;101400.34;5012463;28;20026;-80
2021/10/10 06:12:32;;;;;;;18.90;7.97;;;;;;;10.13;100.00;101358.69;5012623;28;20022;-76
2021/10/10 06:14:59;;;;;;;24.77;8.50;;;;;;;10.32;100.00;101386.34;5012396;28;20036;-78
2021/10/10 06:17:24;;;;;;;25.30;7.75;;;;;;;10.34;100.00;101391.59;5012558;28;20029;-77
2021/10/10 06:19:50;;;;;;;27.98;8.15;;;;;;;10.27;100.00;101369.75;5012714;28;20105;-76
2021/10/10 06:22:16;;;;;;;24.70;7.40;;;;;;;10.22;100.00;101367.72;5012164;28;20451;-79
2021/10/10 06:24:41;;;;;;;28.95;7.65;;;;;;;10.31;100.00;101384.56;5012033;28;20025;-78
2021/10/10 06:27:07;;;;;;;25.00;6.75;;;;;;;10.26;100.00;101380.88;5012277;28;20464;-83
2021/10/10 06:29:32;;;;;;;23.13;7.13;;;;;;;10.37;100.00;101389.22;5012289;28;20017;-80
2021/10/10 06:31:58;;;;;;;26.83;8.07;;;;;;;10.37;100.00;101378.88;5012270;28;20022;-79
2021/10/10 06:34:23;;;;;;;23.08;8.68;;;;;;;10.31;100.00;101383.69;5012207;28;20018;-76
2021/10/10 06:36:49;;;;;;;28.58;9.02;;;;;;;10.10;100.00;101361.09;5011799;28;20022;-77
2021/10/10 06:39:16;;;;;;;26.55;9.15;;;;;;;10.02;100.00;101350.38;4994707;28;20026;-82
2021/10/10 06:41:43;;;;;;;31.90;10.20;;;;;;;10.25;100.00;101391.13;5012229;28;20511;-81
2021/10/10 06:44:08;;;;;;;32.47;10.02;;;;;;;10.18;100.00;101367.56;5011818;28;20028;-82
2021/10/10 06:46:34;;;;;;;32.10;8.55;;;;;;;10.21;100.00;101384.91;5011733;28;20026;-79
2021/10/10 06:49:00;;;;;;;34.28;9.60;;;;;;;10.19;100.00;101377.09;4994460;28;20034;-76
2021/10/10 06:51:25;;;;;;;23.70;9.52;;;;;;;10.00;100.00;101357.13;4992290;28;20444;-77
2021/10/10 06:53:50;;;;;;;36.42;10.43;;;;;;;10.23;100.00;101392.72;4992668;28;20037;-76
2021/10/10 06:56:16;;;;;;;33.10;9.80;;;;;;;10.30;100.00;101394.81;5003837;28;20027;-81
2021/10/10 06:58:41;;;;;;;33.85;10.82;;;;;;;10.22;100.00;101390.94;5001297;28;20034;-75
2021/10/10 07:01:12;;;;;;;36.20;10.27;;;;;;;10.24;100.00;101391.91;5002317;28;20026;-77
2021/10/10 07:03:38;;;;;;;36.47;10.95;;;;;;;10.17;100.00;101382.97;5000775;28;20025;-74
2021/10/10 07:06:03;;;;;;;40.55;13.80;;;;;;;10.18;100.00;101383.03;5001268;28;20025;-76
2021/10/10 07:08:28;;;;;;;40.95;11.32;;;;;;;10.29;100.00;101381.03;5002578;28;20022;-76
2021/10/10 07:10:54;;;;;;;37.88;11.55;;;;;;;10.27;100.00;101368.84;5000406;28;20030;-78
2021/10/10 07:13:19;;;;;;;34.00;10.23;;;;;;;10.27;100.00;101374.00;5001859;28;20021;-80
2021/10/10 07:15:45;;;;;;;36.17;11.88;;;;;;;10.01;100.00;101330.53;5001920;28;20033;-78
2021/10/10 07:18:10;;;;;;;38.53;10.73;;;;;;;10.23;100.00;101370.41;5000634;28;20366;-79
2021/10/10 07:23:55;;;;;;;41.10;12.20;;;;;;;10.27;100.00;101381.72;4968447;28;20489;-77
2021/10/10 07:26:20;;;;;;;30.48;9.88;;;;;;;10.27;100.00;101384.31;4969280;28;20041;-77
2021/10/10 07:28:45;;;;;;;31.85;11.40;;;;;;;10.29;100.00;101382.72;4969531;28;20042;-79
2021/10/10 07:31:11;;;;;;;33.65;11.63;;;;;;;10.12;100.00;101344.00;4969645;28;20401;-80
2021/10/10 07:33:36;;;;;;;30.25;10.50;;;;;;;10.16;100.00;101345.06;4969303;28;20553;-78
2021/10/10 07:36:02;;;;;;;35.20;11.95;;;;;;;10.37;100.00;101378.88;4969520;28;20051;-75
2021/10/10 07:38:27;;;;;;;54.15;12.98;;;;;;;10.44;100.00;101390.41;4969596;28;20533;-79
2021/10/10 07:40:53;;;;;;;33.15;11.32;;;;;;;10.22;100.00;101350.56;4969452;28;20497;-75
2021/10/10 07:43:20;;;;;;;34.55;10.43;;;;;;;10.34;100.00;101370.94;4966068;28;20070;-74
2021/10/10 07:45:47;;;;;;;33.08;9.88;;;;;;;10.29;100.00;101378.47;4968606;28;20073;-75
2021/10/10 07:48:13;;;;;;;28.83;9.73;;;;;;;10.24;100.00;101369.56;4969435;28;20482;-74
2021/10/10 07:50:39;;;;;;;30.30;9.73;;;;;;;10.15;100.00;101377.69;4969406;28;20054;-75
2021/10/10 07:53:06;;;;;;;23.20;9.05;;;;;;;10.20;100.00;101371.13;4969256;28;20046;-75
2021/10/10 07:55:31;;;;;;;21.10;7.60;;;;;;;10.19;100.00;101377.09;4969004;28;20078;-74
2021/10/10 07:57:58;;;;;;;32.65;10.93;;;;;;;10.08;100.00;101366.97;4968956;28;20452;-76
2021/10/10 08:00:24;;;;;;;27.83;8.82;;;;;;;9.94;100.00;101340.44;4992960;28;20033;-78
2021/10/10 08:02:54;;;;;;;22.50;8.23;;;;;;;10.29;100.00;101387.88;5002046;28;20034;-77
2021/10/10 08:05:22;;;;;;;39.90;9.77;;;;;;;10.32;100.00;101386.34;5001014;28;20018;-74
2021/10/10 08:07:49;;;;;;;30.52;10.30;;;;;;;10.39;100.00;101384.13;5000404;28;20125;-77
2021/10/10 08:10:15;;;;;;;29.23;9.23;;;;;;;10.33;100.00;101384.63;5000092;28;20109;-78
2021/10/10 08:12:40;;;;;;;41.70;10.73;;;;;;;10.31;100.00;101370.78;5004012;28;20104;-75
2021/10/10 08:15:07;;;;;;;32.40;9.73;;;;;;;10.39;100.00;101366.94;5005073;28;20030;-75
2021/10/10 08:17:32;;;;;;;25.88;9.60;;;;;;;10.19;100.00;101332.31;4985715;28;20022;-73
2021/10/10 08:19:58;;;;;;;32.25;10.98;;;;;;;10.48;100.00;101385.50;5004988;28;20375;-78
2021/10/10 08:22:24;;;;;;;27.83;8.25;;;;;;;10.39;99.31;101376.38;5004591;28;20025;-75
2021/10/10 08:24:49;;;;;;;31.50;9.38;;;;;;;10.56;99.86;101388.47;5003314;28;20108;-76
2021/10/10 08:27:15;;;;;;;21.02;7.85;;;;;;;10.51;98.54;101374.44;5005169;28;20437;-73
2021/10/10 08:29:40;;;;;;;27.83;9.90;;;;;;;10.42;99.52;101354.19;5004068;28;20026;-78
2021/10/10 08:32:06;;;;;;;25.52;8.40;;;;;;;10.51;98.76;101379.59;5003277;28;20026;-73
2021/10/10 08:34:31;;;;;;;31.50;8.70;;;;;;;10.47;99.34;101364.78;5004700;28;20465;-73
2021/10/10 08:36:57;;;;;;;20.80;7.22;;;;;;;10.44;99.23;101356.84;5003378;28;20030;-76
2021/10/10 08:39:24;;;;;;;23.83;7.40;;;;;;;10.50;99.82;101362.34;5003612;28;20064;-78
2021/10/10 08:41:53;;;;;;;16.85;8.45;;;;;;;10.51;99.56;101380.47;5005043;28;20115;-76
2021/10/10 08:44:23;;;;;;;27.90;9.75;;;;;;;10.56;99.53;101378.13;5002211;28;20034;-78
2021/10/10 08:46:50;;;;;;;27.40;8.07;;;;;;;10.60;99.62;101385.22;5017045;28;20064;-76
2021/10/10 08:49:17;;;;;;;23.70;8.20;;;;;;;10.60;99.59;101379.19;5012820;28;20021;-76
2021/10/10 08:51:42;;;;;;;25.70;8.60;;;;;;;10.59;99.14;101377.41;5013575;28;20022;-76
2021/10/10 08:54:09;;;;;;;25.83;7.72;;;;;;;10.66;99.45;101364.88;5008341;28;20105;-76
2021/10/10 08:56:34;;;;;;;25.63;7.82;;;;;;;10.45;98.68;101337.97;5004398;28;20029;-75
2021/10/10 08:59:03;;;;;;;28.60;7.68;;;;;;;10.69;99.39;101361.56;5002925;28;20082;-76
2021/10/10 09:01:32;;;;;;;24.08;7.75;;;;;;;10.72;99.65;101371.19;5003152;28;20088;-75
2021/10/10 09:03:58;;;;;;;18.95;7.10;;;;;;;10.63;99.23;101363.84;5002489;28;20028;-72
2021/10/10 09:06:24;;;;;;;21.05;7.18;;;;;;;10.49;99.35;101329.56;5003322;28;20379;-75
2021/10/10 09:08:51;;;;;;;17.75;7.03;;;;;;;10.75;99.06;101368.75;5003634;28;20477;-75
2021/10/10 09:11:17;;;;;;;18.75;7.25;;;;;;;10.72;99.01;101372.06;5001614;28;20386;-73
2021/10/10 09:13:43;;;;;;;20.27;7.35;;;;;;;10.74;98.91;101365.28;5004695;28;20021;-74
2021/10/10 09:16:11;;;;;;;25.98;8.18;;;;;;;10.67;99.65;101345.13;5002753;28;20018;-75
2021/10/10 09:18:39;;;;;;;21.33;7.15;;;;;;;10.77;100.00;101360.28;4984495;28;20021;-76
2021/10/10 09:21:16;;;;;;;19.95;7.10;;;;;;;10.78;98.31;101359.47;4994292;28;20026;-72
2021/10/10 09:23:46;;;;;;;21.92;7.45;;;;;;;10.91;99.25;101349.75;4993756;28;20069;-75
2021/10/10 09:26:11;;;;;;;17.65;7.25;;;;;;;10.91;98.81;101350.63;4994190;28;20015;-75
2021/10/10 09:28:39;;;;;;;24.23;7.03;;;;;;;10.91;99.02;101353.22;5009726;28;20092;-72
2021/10/10 09:31:07;;;;;;;21.55;7.88;;;;;;;10.83;98.79;101347.66;5002518;28;20062;-75
2021/10/10 09:33:47;;;;;;;19.63;6.53;;;;;;;10.83;99.28;101321.84;5002403;28;20384;-76
2021/10/10 09:36:25;;;;;;;25.80;7.93;;;;;;;10.89;97.91;101348.78;5003063;28;20022;-71
2021/10/10 09:41:44;;;;;;;29.45;9.15;;;;;;;10.90;97.88;101312.69;5002216;28;20412;-77
2021/10/10 09:44:23;;;;;;;28.02;11.57;;;;;;;11.25;98.66;101349.72;5004112;28;20025;-74
2021/10/10 09:46:50;;;;;;;37.92;10.68;;;;;;;11.25;99.29;101328.13;5003673;28;20018;-72
2021/10/10 09:49:30;;;;;;;31.60;10.85;;;;;;;11.43;97.31;101347.09;5003181;28;20027;-72
2021/10/10 09:52:07;;;;;;;34.42;10.75;;;;;;;11.51;98.17;101346.59;5003134;28;20105;-75
2021/10/10 09:54:57;;;;;;;33.78;9.68;;;;;;;11.51;98.08;101328.50;4980915;28;20045;-75
2021/10/10 09:57:24;;;;;;;26.13;8.98;;;;;;;11.58;98.24;101326.25;4981195;28;20049;-74
2021/10/10 09:59:50;;;;;;;37.80;10.45;;;;;;;11.69;97.23;101337.09;4979969;28;20022;-73
2021/10/10 10:02:17;;;;;;;30.67;9.88;;;;;;;11.64;97.24;101321.38;4980476;28;20090;-75
2021/10/10 10:04:50;;;;;;;25.88;10.52;;;;;;;11.77;97.38;101338.31;4981275;28;20034;-74
2021/10/10 10:07:21;;;;;;;26.13;9.18;;;;;;;11.77;96.88;101342.63;4981423;28;20725;-74
2021/10/10 10:09:52;;;;;;;25.08;8.50;;;;;;;11.75;97.08;101337.41;4982295;28;20130;-71
2021/10/10 10:12:25;;;;;;;37.40;10.82;;;;;;;11.70;97.67;101322.47;4980155;28;20027;-74
2021/10/10 10:14:53;;;;;;;25.60;9.68;;;;;;;11.80;97.45;101330.72;4979417;28;20035;-74
2021/10/10 10:17:25;;;;;;;39.00;9.98;;;;;;;11.67;97.50;101310.28;4979435;28;20028;-74
2021/10/10 10:19:51;;;;;;;24.13;7.63;;;;;;;11.86;98.49;101337.88;4980992;28;20081;-75
2021/10/10 10:22:17;;;;;;;21.40;8.90;;;;;;;11.88;97.62;101341.41;4979853;28;20106;-74
2021/10/10 10:24:45;;;;;;;26.80;8.57;;;;;;;11.90;98.34;101336.31;4985488;28;20030;-71
2021/10/10 10:27:12;;;;;;;28.58;9.40;;;;;;;12.01;97.18;101335.13;5001075;28;20100;-73
2021/10/10 10:29:41;;;;;;;25.23;8.65;;;;;;;12.05;97.73;101331.88;4999933;28;20084;-74
2021/10/10 10:32:08;;;;;;;26.35;7.95;;;;;;;12.01;97.05;101313.53;4956892;28;20041;-74
2021/10/10 10:34:34;;;;;;;25.45;8.60;;;;;;;12.06;97.04;101309.44;5002206;28;20020;-74
2021/10/10 10:37:07;;;;;;;40.15;10.45;;;;;;;12.15;97.55;101309.88;5000854;28;20093;-74
2021/10/10 10:39:48;;;;;;;44.38;11.40;;;;;;;12.23;97.16;101323.16;5001241;28;20049;-74
2021/10/10 10:42:34;;;;;;;39.17;9.82;;;;;;;12.32;96.32;101320.06;5002483;28;20026;-74
2021/10/10 10:45:00;;;;;;;34.90;12.00;;;;;;;12.30;96.68;101307.94;5002431;28;20018;-74
2021/10/10 10:47:40;;;;;;;29.67;10.50;;;;;;;12.39;96.35;101319.53;5001107;28;20022;-73
2021/10/10 10:50:18;;;;;;;32.75;10.00;;;;;;;12.43;95.44;101311.94;5001215;28;20408;-73
2021/10/10 10:52:54;;;;;;;33.45;9.95;;;;;;;12.45;95.26;101302.53;5000000;28;20053;-75
2021/10/10 10:55:38;;;;;;;35.80;10.48;;;;;;;12.48;95.44;101300.91;5000322;28;20157;-74
2021/10/10 10:58:09;;;;;;;38.75;11.68;;;;;;;12.41;96.76;101282.53;5005070;28;20038;-76
2021/10/10 11:00:39;;;;;;;46.88;11.68;;;;;;;12.49;96.61;101284.56;5009857;28;20080;-74
2021/10/10 11:03:10;;;;;;;42.03;11.95;;;;;;;12.48;nan;101282.78;5002152;28;20062;-75
2021/10/10 11:05:38;;;;;;;37.55;10.20;;;;;;;12.58;96.16;101298.75;4992254;28;20026;-74
2021/10/10 11:08:16;;;;;;;33.60;9.73;;;;;;;12.63;97.07;101293.78;5007905;28;20086;-73
2021/10/10 11:11:05;;;;;;;36.80;8.95;;;;;;;12.63;97.00;101291.19;5011930;28;20065;-74
2021/10/10 11:13:33;;;;;;;27.23;9.75;;;;;;;12.43;96.97;101260.13;4946215;28;20038;-77
2021/10/10 11:16:15;;;;;;;36.78;9.82;;;;;;;12.55;97.20;101269.28;4940096;29;20134;-77
2021/10/10 11:18:48;;;;;;;29.27;10.35;;;;;;;12.50;97.62;101253.53;4943535;29;20092;-77
2021/10/10 11:21:28;;;;;;;29.98;10.70;;;;;;;12.66;97.51;101277.47;4945386;29;20620;-77